• Join FlightAware (Why Join?)
  • Login
  • US Flag 
04:03PM EDT


 

Airport Tracker/Info


-or-


 

Live Flight TrackerFlight Track Log ✈ EJM90 ✈ 16-Jan-2014 ✈ KTUS - KORL

Flight Track Log - Related Links

Times and Time Zones

All times are in EST time to prevent confusion due to time zone crossing. See the EJM90 flight status page for this flight to view local times or setup timezone preferences in your user account.

Time Position Orientation Groundspeed Altitude Reporting Facility
EST Latitude Longitude Course Direction KTS MPH feet Rate Location/Type
01:41PM 32.1073 -110.9290 135° Southeast 181 208 2,900  Level FlightAware ADS-B (KDMA)
01:42PM 32.0952 -110.9146 135° Southeast 188 216 4,000 3,480 Climbing FlightAware ADS-B (KDMA)
01:42PM 32.0821 -110.8994 135° Southeast 203 234 5,200 3,660 Climbing FlightAware ADS-B (KDMA)
01:42PM 32.0674 -110.8822 135° Southeast 219 252 6,600 3,240 Climbing FlightAware ADS-B (KDMA)
01:43PM 32.0493 -110.8608 135° Southeast 247 284 7,700 2,760 Climbing FlightAware ADS-B (KDMA)
01:43PM 32.0426 -110.8514 130° Southeast 253 291 8,100 2,580 Climbing FlightAware ADS-B (KDMA)
01:43PM 32.0379 -110.8423 121° Southeast 270 311 8,400 1,860 Climbing FlightAware ADS-B (KDMA)
01:43PM 32.0324 -110.8242 110° East 286 329 8,700 2,460 Climbing FlightAware ADS-B (KDMA)
01:44PM 32.0298 -110.7996 97° East 295 339 9,600 3,540 Climbing FlightAware ADS-B (KDMA)
01:44PM 32.0299 -110.7654 90° East 304 350 10,900 3,600 Climbing FlightAware ADS-B (KDMA)
01:44PM 32.0284 -110.7492 96° East 312 359 11,400 2,580 Climbing FlightAware ADS-B (KDMA)
01:45PM 32.0125 -110.6979 110° East 345 397 12,700 2,820 Climbing FlightAware ADS-B (KDMA)
01:45PM 31.9900 -110.6324 112° Southeast 358 412 14,600 3,360 Climbing FlightAware ADS-B (KDMA)
01:46PM 31.9703 -110.5776 113° Southeast 368 423 16,400 3,240 Climbing FlightAware ADS-B (KDMA)
01:46PM 31.9409 -110.4963 113° Southeast 377 434 18,600 3,120 Climbing FlightAware ADS-B (KDMA)
01:47PM 31.9270 -110.4588 114° Southeast 381 438 19,700 2,940 Climbing FlightAware ADS-B (KDMA)
01:48PM 31.8886 -110.3429 111° Southeast 395 455 22,500 2,880 Climbing FlightAware ADS-B (KDMA)
01:48PM 31.8809 -110.3045 103° East 399 459 23,400 2,520 Climbing FlightAware ADS-B (KDMA)
01:49PM 31.8675 -110.2383 103° East 406 467 24,600 2,400 Climbing FlightAware ADS-B (KDMA)
01:49PM 31.8493 -110.1457 103° East 412 474 26,400 2,460 Climbing FlightAware ADS-B (KDMA)
01:50PM 31.8466 -110.0519 92° East 417 480 28,100 1,920 Climbing FlightAware ADS-B (KDMA)
01:51PM 31.8494 -109.9805 87° East 435 501 28,800 1,500 Climbing FlightAware ADS-B (KDMA)
01:51PM 31.8528 -109.9017 87° East 444 511 29,700 1,680 Climbing FlightAware ADS-B (KDMA)
01:52PM 31.8581 -109.7664 87° East 455 524 31,300 1,680 Climbing FlightAware ADS-B (KDMA)
01:53PM 31.8664 -109.5587 87° East 465 535 33,600 1,560 Climbing FlightAware ADS-B (KDMA)
01:55PM 31.8719 -109.3758 87° East 464 534 35,600 1,500 Climbing Albuquerque Center
01:56PM 31.8783 -109.2272 87° East 462 532 37,300 1,680 Climbing Albuquerque Center
01:57PM 31.8839 -109.0503 88° East 456 525 39,200 1,560 Climbing Albuquerque Center
01:58PM 31.8886 -108.9086 88° East 444 511 40,600 840 Climbing Albuquerque Center
01:59PM 31.8936 -108.7683 88° East 435 501 41,000 180 Climbing Albuquerque Center
02:00PM 31.8986 -108.6211 88° East 444 511 41,000  Level Albuquerque Center
02:01PM 31.9028 -108.4672 88° East 464 534 41,000  Level Albuquerque Center
02:02PM 31.9089 -108.3036 87° East 475 547 41,000  Level Albuquerque Center
02:03PM 31.9131 -108.1475 88° East 479 551 41,000  Level Albuquerque Center
02:04PM 31.9183 -107.9611 88° East 478 550 41,000  Level Albuquerque Center
02:05PM 31.9217 -107.8044 89° East 480 552 41,000 -60 Level Albuquerque Center
02:06PM 31.9261 -107.6489 88° East 479 551 40,900  Descending Albuquerque Center
02:07PM 31.9306 -107.4947 88° East 477 549 41,000  Climbing Albuquerque Center
02:08PM 31.9339 -107.3406 88° East 476 548 41,000  Level Albuquerque Center
02:09PM 31.9381 -107.1572 88° East 473 544 41,000  Level Albuquerque Center
02:10PM 31.9417 -107.0036 88° East 474 545 41,000 -60 Level Albuquerque Center
02:11PM 31.9442 -106.8483 89° East 477 549 40,900  Descending Albuquerque Center
02:12PM 31.9458 -106.6936 89° East 476 548 41,000  Climbing Albuquerque Center
02:13PM 31.9486 -106.5339 89° East 486 559 41,000  Level Albuquerque Center
02:14PM 31.9528 -106.3483 88° East 480 552 41,000  Level Albuquerque Center
02:15PM 31.9597 -106.1917 87° East 479 551 41,000  Level Albuquerque Center
02:16PM 31.9775 -106.0353 82° East 482 555 41,000  Level Albuquerque Center
02:17PM 31.9936 -105.8800 83° East 485 558 41,000  Level Albuquerque Center
02:19PM 32.0100 -105.7222 83° East 485 558 41,000  Level Albuquerque Center
02:20PM 32.0308 -105.5328 83° East 485 558 41,000  Level Albuquerque Center
02:21PM 32.0467 -105.3750 83° East 485 558 41,000  Level Albuquerque Center
02:22PM 32.0639 -105.2167 83° East 486 559 41,000  Level Albuquerque Center
02:23PM 32.0800 -105.0592 83° East 484 557 41,000  Level Albuquerque Center
02:24PM 32.0961 -104.9000 83° East 486 559 41,000  Level Albuquerque Center
02:25PM 32.1117 -104.7397 83° East 489 563 41,000  Level Albuquerque Center
02:26PM 32.1289 -104.5461 84° East 493 567 41,000  Level Albuquerque Center
02:27PM 32.1439 -104.3850 84° East 493 567 41,000  Level Albuquerque Center
02:28PM 32.1606 -104.2264 83° East 490 564 41,000  Level Albuquerque Center
02:29PM 32.1747 -104.0656 84° East 491 565 41,000  Level Albuquerque Center
02:30PM 32.1897 -103.8975 84° East 491 565 41,000  Level Albuquerque Center
02:31PM 32.2044 -103.7378 84° East 492 566 41,000  Level Albuquerque Center
02:32PM 32.2208 -103.5789 83° East 491 565 41,000  Level Albuquerque Center
02:33PM 32.2342 -103.4189 84° East 492 566 41,000  Level Albuquerque Center
02:34PM 32.2506 -103.2278 84° East 490 564 41,000  Level Albuquerque Center
02:36PM 32.2575 -102.9397 88° East 498 573 41,000  Level Houston Center
02:37PM 32.2536 -102.7447 91° East 496 571 41,000  Level Houston Center
02:38PM 32.2519 -102.5842 91° East 496 571 41,000  Level Fort Worth Center
02:39PM 32.2467 -102.4244 92° East 496 571 41,000  Level Fort Worth Center
02:40PM 32.2436 -102.2642 91° East 497 572 41,000  Level Fort Worth Center
02:41PM 32.2389 -102.0706 92° East 498 573 41,000  Level Fort Worth Center
02:42PM 32.2353 -101.9078 91° East 500 575 41,000  Level Fort Worth Center
02:43PM 32.2311 -101.7458 92° East 498 573 41,000  Level Fort Worth Center
02:44PM 32.2258 -101.5819 92° East 502 578 41,000  Level Fort Worth Center
02:45PM 32.2222 -101.4172 91° East 505 581 41,000  Level Fort Worth Center
02:46PM 32.2147 -101.2236 93° East 508 585 41,000  Level Fort Worth Center
02:47PM 32.2094 -101.0564 92° East 509 586 41,000  Level Fort Worth Center
02:48PM 32.2042 -100.8889 92° East 511 588 41,000  Level Fort Worth Center
02:49PM 32.1981 -100.7222 92° East 510 587 41,000  Level Fort Worth Center
02:50PM 32.1911 -100.5547 93° East 512 589 41,000  Level Fort Worth Center
02:52PM 32.1856 -100.3525 92° East 514 592 41,000  Level Fort Worth Center
02:53PM 32.1792 -100.1858 93° East 513 590 41,000  Level Fort Worth Center
02:54PM 32.1725 -100.0208 93° East 510 587 41,000  Level Fort Worth Center
02:55PM 32.1647 -99.8578 93° East 505 581 41,000  Level Fort Worth Center
02:56PM 32.1592 -99.6942 92° East 504 580 41,000  Level Fort Worth Center
02:57PM 32.1497 -99.4958 93° East 508 585 41,000  Level Fort Worth Center
03:06PM 32.0718 -97.9711 94° East 508 585 41,000  Level FlightAware ADS-B
03:09PM 32.0449 -97.5144 98° East 510 587 41,000  Level FlightAware ADS-B
03:09PM 32.0388 -97.4102 94° East 512 589 41,000  Level FlightAware ADS-B
03:10PM 32.0337 -97.3273 94° East 514 592 41,000  Level FlightAware ADS-B
03:10PM 32.0286 -97.2429 94° East 514 592 41,000  Level FlightAware ADS-B
03:11PM 32.0242 -97.1745 94° East 514 592 41,000  Level FlightAware ADS-B
03:11PM 32.0180 -97.0759 94° East 513 590 41,000  Level FlightAware ADS-B
03:12PM 32.0127 -96.9925 94° East 513 590 41,000  Level FlightAware ADS-B
03:12PM 32.0074 -96.9099 94° East 513 590 41,000  Level FlightAware ADS-B
03:13PM 32.0020 -96.8268 94° East 514 592 41,000  Level FlightAware ADS-B
03:13PM 31.9963 -96.7425 94° East 514 592 41,000  Level FlightAware ADS-B
03:14PM 31.9907 -96.6598 95° East 514 592 41,000  Level FlightAware ADS-B
03:14PM 31.9847 -96.5755 95° East 516 594 41,000  Level FlightAware ADS-B
03:15PM 31.9790 -96.4952 95° East 515 593 41,000  Level FlightAware ADS-B
03:15PM 31.9730 -96.4110 95° East 515 593 41,000  Level FlightAware ADS-B
03:16PM 31.9670 -96.3252 95° East 515 593 41,000  Level FlightAware ADS-B
03:16PM 31.9612 -96.2407 95° East 517 595 41,000  Level FlightAware ADS-B
03:17PM 31.9554 -96.1573 95° East 517 595 41,000  Level FlightAware ADS-B
03:17PM 31.9494 -96.0733 95° East 518 596 41,000  Level FlightAware ADS-B
03:18PM 31.9435 -95.9922 95° East 518 596 41,000  Level FlightAware ADS-B
03:18PM 31.9374 -95.9075 95° East 515 593 41,000  Level FlightAware ADS-B
03:19PM 31.9310 -95.8223 95° East 515 593 41,000  Level FlightAware ADS-B
03:19PM 31.9249 -95.7385 95° East 520 598 41,000  Level FlightAware ADS-B
03:20PM 31.9151 -95.6085 95° East 522 601 41,000  Level FlightAware ADS-B
03:20PM 31.9090 -95.5244 95° East 522 601 41,000  Level FlightAware ADS-B
03:21PM 31.9026 -95.4393 95° East 522 601 41,000  Level FlightAware ADS-B
03:22PM 31.8962 -95.3553 95° East 523 602 41,000  Level FlightAware ADS-B
03:22PM 31.8895 -95.2732 95° East 524 603 41,000  Level FlightAware ADS-B
03:22PM 31.8823 -95.1856 96° East 523 602 41,000  Level FlightAware ADS-B
03:23PM 31.8753 -95.1011 96° East 523 602 41,000  Level FlightAware ADS-B
03:23PM 31.8700 -95.0391 96° East 525 604 41,000  Level FlightAware ADS-B
03:24PM 31.8639 -94.9873 98° East 525 604 41,000  Level FlightAware ADS-B
03:24PM 31.8563 -94.9380 100° East 525 604 41,000  Level FlightAware ADS-B
03:24PM 31.8412 -94.8551 102° East 524 603 41,000  Level FlightAware ADS-B
03:25PM 31.8341 -94.8117 101° East 524 603 41,000  Level FlightAware ADS-B
03:25PM 31.8280 -94.7648 99° East 525 604 41,000  Level FlightAware ADS-B
03:25PM 31.8219 -94.7024 97° East 526 605 41,000  Level FlightAware ADS-B
03:26PM 31.8151 -94.6172 95° East 525 604 41,000  Level FlightAware ADS-B
03:26PM 31.8132 -94.5941 96° East 526 605 41,000  Level FlightAware ADS-B (KDTN)
03:26PM 31.8079 -94.5322 96° East 526 605 41,000  Level FlightAware ADS-B
03:27PM 31.8057 -94.5048 95° East 526 605 41,000  Level FlightAware ADS-B (KDTN)
03:27PM 31.8009 -94.4475 96° East 525 604 41,000  Level FlightAware ADS-B
03:27PM 31.7974 -94.4065 96° East 523 602 41,000  Level FlightAware ADS-B (KDTN)
03:27PM 31.7938 -94.3627 95° East 523 602 41,000  Level FlightAware ADS-B
03:28PM 31.7866 -94.2778 96° East 524 603 41,000  Level FlightAware ADS-B
03:28PM 31.7795 -94.1939 96° East 525 604 41,000  Level FlightAware ADS-B
03:29PM 31.7729 -94.1170 96° East 524 603 41,000  Level FlightAware ADS-B
03:29PM 31.7696 -94.0790 96° East 524 603 41,000  Level FlightAware ADS-B (KDTN)
03:29PM 31.7651 -94.0248 96° East 523 602 41,000  Level FlightAware ADS-B
03:30PM 31.7600 -93.9671 96° East 523 602 41,000  Level FlightAware ADS-B (KDTN)
03:30PM 31.7576 -93.9391 96° East 524 603 41,000  Level FlightAware ADS-B
03:30PM 31.7506 -93.8568 96° East 525 604 41,000  Level FlightAware ADS-B
03:31PM 31.7427 -93.7695 96° East 527 606 41,000  Level FlightAware ADS-B
03:31PM 31.7374 -93.7112 96° East 526 605 41,000  Level FlightAware ADS-B (KDTN)
03:31PM 31.7359 -93.6954 96° East 526 605 41,000  Level FlightAware ADS-B
03:32PM 31.7296 -93.6254 96° East 527 606 41,000  Level FlightAware ADS-B (KDTN)
03:32PM 31.7272 -93.5992 96° East 526 605 41,000  Level FlightAware ADS-B
03:32PM 31.7206 -93.5229 96° East 524 603 41,000  Level FlightAware ADS-B
03:32PM 31.7197 -93.5132 96° East 524 603 41,000  Level FlightAware ADS-B (KDTN)
03:33PM 31.7131 -93.4372 96° East 523 602 41,000  Level FlightAware ADS-B
03:33PM 31.7113 -93.4173 96° East 524 603 41,000  Level FlightAware ADS-B (KDTN)
03:34PM 31.6952 -93.2449 96° East 524 603 41,000  Level FlightAware ADS-B (KDTN)
03:35PM 31.6825 -93.0992 96° East 523 602 41,000  Level Fort Worth Center
03:41PM 31.5887 -92.1459 96° East 520 598 41,000  Level FlightAware ADS-B (KDTN)
03:41PM 31.5772 -92.0417 96° East 518 596 41,000  Level Houston Center
03:43PM 31.5431 -91.7097 97° East 520 598 41,000  Level Fort Worth Center
03:44PM 31.5208 -91.5119 97° East 514 592 41,000  Level Houston Center
03:45PM 31.5039 -91.3464 97° East 513 590 41,000  Level Houston Center
03:46PM 31.4853 -91.1811 97° East 513 590 41,000  Level Houston Center
03:48PM 31.4508 -90.8506 98° East 509 586 41,000 -60 Level Fort Worth Center
03:50PM 31.4297 -90.6647 98° East 512 589 40,900  Descending Houston Center
03:51PM 31.4103 -90.4986 98° East 514 592 41,000  Climbing Houston Center
03:52PM 31.3917 -90.3331 97° East 514 592 41,000  Level Houston Center
03:53PM 31.3719 -90.1686 98° East 512 589 41,000  Level Houston Center
03:54PM 31.3519 -90.0056 98° East 507 583 41,000  Level Houston Center
03:55PM 31.3300 -89.8086 97° East 508 585 41,000  Level Houston Center
03:56PM 31.3092 -89.6447 98° East 510 587 41,000  Level Houston Center
03:57PM 31.2897 -89.4897 98° East 507 583 41,000  Level Houston Center
03:58PM 31.2692 -89.3275 98° East 505 581 41,000  Level Houston Center
03:59PM 31.2489 -89.1553 98° East 506 582 41,000  Level Houston Center
04:00PM 31.2281 -88.9933 99° East 505 581 41,000  Level Houston Center
04:01PM 31.2050 -88.8089 98° East 504 580 41,000  Level Houston Center
04:02PM 31.1839 -88.6472 99° East 504 580 41,000  Level Houston Center
04:03PM 31.1619 -88.4758 98° East 502 578 41,000  Level Houston Center
04:04PM 31.1397 -88.3150 99° East 503 579 41,000  Level Houston Center
04:05PM 31.1172 -88.1539 99° East 503 579 41,000  Level Houston Center
04:06PM 31.0956 -87.9950 99° East 498 573 41,000  Level Houston Center
04:07PM 31.0711 -87.8011 98° East 506 582 41,000  Level Houston Center
04:08PM 31.0483 -87.6400 99° East 500 575 41,000  Level Houston Center
04:09PM 31.0256 -87.4819 100° East 496 571 41,000  Level Houston Center
04:10PM 31.0089 -87.3522 98° East 503 579 41,000  Level Jacksonville Center
04:11PM 30.9892 -87.1939 98° East 498 573 41,000  Level Jacksonville Center
04:12PM 30.9672 -87.0378 99° East 493 567 41,000  Level Jacksonville Center
04:13PM 30.9431 -86.8792 100° East 493 567 41,000  Level Jacksonville Center
04:14PM 30.9333 -86.7192 94° East 488 562 41,000  Level Jacksonville Center
04:15PM 30.9258 -86.5564 93° East 488 562 41,000  Level Jacksonville Center
04:16PM 30.9197 -86.3964 93° East 488 562 41,000  Level Jacksonville Center
04:17PM 30.9156 -86.2389 92° East 488 562 41,000  Level Jacksonville Center
04:18PM 30.9114 -86.0789 92° East 494 568 41,000  Level Jacksonville Center
04:19PM 30.9050 -85.9142 93° East 499 574 41,000  Level Jacksonville Center
04:20PM 30.8981 -85.7589 93° East 499 574 41,000  Level Jacksonville Center
04:21PM 30.8914 -85.5967 93° East 499 574 41,000  Level Jacksonville Center
04:22PM 30.8861 -85.4367 92° East 499 574 41,000  Level Jacksonville Center
04:23PM 30.8789 -85.2792 93° East 499 574 41,000  Level Jacksonville Center
04:24PM 30.8733 -85.1169 92° East 499 574 41,000 -480 Level Jacksonville Center
04:29PM 30.6781 -84.3053 92° East 492 566 38,100 -660 Descending FlightAware ADS-B (KTLH)
04:30PM 30.6497 -84.2285 113° Southeast 482 555 37,400 -1,380 Descending FlightAware ADS-B (KTLH)
04:31PM 30.6023 -84.1018 113° Southeast 487 560 36,300 -960 Descending FlightAware ADS-B (KTLH)
04:31PM 30.5649 -84.0015 113° Southeast 487 560 36,000 -300 Descending FlightAware ADS-B (KTLH)
04:32PM 30.5376 -83.9286 114° Southeast 489 563 36,000  Level FlightAware ADS-B (KTLH)
04:32PM 30.5114 -83.8580 113° Southeast 488 562 36,000 -900 Level FlightAware ADS-B (KTLH)
04:33PM 30.4776 -83.7673 113° Southeast 486 559 35,000 -2,040 Descending FlightAware ADS-B (KTLH)
04:34PM 30.4410 -83.6701 114° Southeast 495 570 33,400 -2,460 Descending FlightAware ADS-B (KTLH)
04:34PM 30.4042 -83.5734 114° Southeast 513 590 31,700 -2,580 Descending FlightAware ADS-B (KTLH)
04:35PM 30.3702 -83.4842 114° Southeast 508 585 30,100 -2,400 Descending FlightAware ADS-B (KTLH)
04:36PM 30.3158 -83.3403 114° Southeast 493 567 27,900 -1,560 Descending Jacksonville Center
04:37PM 30.2619 -83.1956 113° Southeast 493 567 27,000 -540 Descending Jacksonville Center
04:38PM 30.2058 -83.0511 114° Southeast 493 567 26,900 -360 Descending Jacksonville Center
04:43PM 29.8385 -82.3898 114° Southeast 453 521 25,000 -360 Descending FlightAware ADS-B (KMCO)
04:44PM 29.7618 -82.3514 157° South 449 517 25,000  Level FlightAware ADS-B (KMCO)
04:45PM 29.6913 -82.3172 157° South 448 516 25,000  Level FlightAware ADS-B (KMCO)
04:45PM 29.6089 -82.2774 157° South 448 516 25,000 -480 Level FlightAware ADS-B (KMCO)
04:46PM 29.5383 -82.2434 157° South 448 516 24,400 -1,680 Descending FlightAware ADS-B (KMCO)
04:47PM 29.4753 -82.2132 157° South 439 505 22,900 -2,280 Descending FlightAware ADS-B (KMCO)
04:47PM 29.3814 -82.1682 157° South 426 490 21,300 -2,220 Descending FlightAware ADS-B (KMCO)
04:48PM 29.3107 -82.1344 157° South 416 479 19,800 -2,340 Descending FlightAware ADS-B (KMCO)
04:49PM 29.2417 -82.1015 157° South 410 472 18,300 -2,280 Descending FlightAware ADS-B (KMCO)
04:49PM 29.1552 -82.0602 157° South 391 450 16,400 -2,160 Descending FlightAware ADS-B (KMCO)
04:50PM 29.0865 -82.0275 157° South 389 448 15,000 -2,040 Descending FlightAware ADS-B (KMCO)
04:51PM 29.0376 -82.0042 157° South 380 437 14,000 -2,160 Descending FlightAware ADS-B (KMCO)
04:51PM 28.9813 -81.9773 157° South 373 429 12,700 -1,980 Descending FlightAware ADS-B (KMCO)
04:52PM 28.9133 -81.9358 152° Southeast 352 405 11,400 -1,260 Descending FlightAware ADS-B (KMCO)
04:53PM 28.8641 -81.8872 139° Southeast 349 402 10,900 -1,020 Descending FlightAware ADS-B (KMCO)
04:53PM 28.8304 -81.8385 128° Southeast 336 387 10,100 -1,440 Descending FlightAware ADS-B (KMCO)
04:54PM 28.8147 -81.7989 114° Southeast 330 380 9,500 -1,620 Descending FlightAware ADS-B (KMCO)
04:54PM 28.8077 -81.7661 104° East 323 372 9,000 -1,500 Descending FlightAware ADS-B (KMCO)
04:54PM 28.8007 -81.7327 104° East 316 364 8,500 -1,620 Descending FlightAware ADS-B (KMCO)
04:55PM 28.7938 -81.7005 104° East 309 356 7,900 -1,680 Descending FlightAware ADS-B (KMCO)
04:55PM 28.7866 -81.6682 104° East 308 354 7,400 -1,500 Descending FlightAware ADS-B (KMCO)
04:55PM 28.7792 -81.6376 105° East 304 350 6,900 -1,500 Descending FlightAware ADS-B (KMCO)
04:56PM 28.7726 -81.6100 105° East 295 339 6,400 -1,500 Descending FlightAware ADS-B (KMCO)
04:56PM 28.7651 -81.5779 105° East 293 337 5,900 -1,380 Descending FlightAware ADS-B (KMCO)
04:56PM 28.7570 -81.5461 106° East 285 328 5,500 -1,380 Descending FlightAware ADS-B (KMCO)
04:57PM 28.7504 -81.5206 106° East 285 328 5,000 -1,500 Descending FlightAware ADS-B (KMCO)
04:57PM 28.7425 -81.4901 107° East 280 322 4,500 -1,380 Descending FlightAware ADS-B (KMCO)
04:57PM 28.7351 -81.4625 107° East 276 318 4,100 -1,440 Descending FlightAware ADS-B (KMCO)
04:58PM 28.7255 -81.4371 113° Southeast 270 311 3,600 -1,380 Descending FlightAware ADS-B (KMCO)
04:58PM 28.7128 -81.4117 120° Southeast 269 310 3,200 -1,320 Descending FlightAware ADS-B (KMCO)
04:58PM 28.6962 -81.3916 133° Southeast 261 300 2,700 -1,380 Descending FlightAware ADS-B (KMCO)
04:59PM 28.6794 -81.3719 134° Southeast 252 290 2,300 -1,200 Descending FlightAware ADS-B (KMCO)
04:59PM 28.6481 -81.3346 134° Southeast 238 274 1,500 -840 Descending FlightAware ADS-B (KMCO)
05:00PM 28.6334 -81.3172 134° Southeast 218 251 1,500 -180 Level FlightAware ADS-B (KMCO)
05:00PM 28.6233 -81.3052 134° Southeast 204 235 1,400  Descending FlightAware ADS-B (VOCI / COK)
05:00PM 28.6133 -81.2932 134° Southeast 190 219 1,500 180 Climbing FlightAware ADS-B (KSFB)
05:00PM 28.6037 -81.2818 134° Southeast 169 194 1,500 -300 Level FlightAware ADS-B (KSFB)
05:01PM 28.6007 -81.2783 135° Southeast 154 177 1,400 -540 Descending FlightAware ADS-B (VOCI / COK)
05:01PM 28.5976 -81.2756 143° Southeast 147 169 1,400 -360 Level FlightAware ADS-B (KMCO)
05:01PM 28.5982 -81.2760 328° Northwest 135 155 1,300 -480 Descending FlightAware ADS-B (KSFB)
05:01PM 28.5885 -81.2730 165° South 130 150 1,300 -300 Level FlightAware ADS-B (VOCI / COK)
05:01PM 28.5829 -81.2735 184° South 128 147 1,200 -540 Descending FlightAware ADS-B (KSFB)
05:02PM 28.5680 -81.2795 200° South 124 143 1,000 -660 Descending FlightAware ADS-B (KSFB)
05:02PM 28.5648 -81.2833 226° Southwest 117 135 900 -840 Descending FlightAware ADS-B (KMCO)
05:02PM 28.5598 -81.2942 243° Southwest 116 133 600 -900 Descending FlightAware ADS-B (KMCO)
05:02PM 28.5555 -81.3057 247° West 114 131 300 -780 Descending FlightAware ADS-B (KMCO)
05:03PM 28.5515 -81.3164 247° West 117 135 100 -660 Descending FlightAware ADS-B (KMCO)
05:10PM 28.5333 -81.3167 24° Northeast  Level FlightAware Approximate
05:11PM 28.5455 -81.3329 24° Northeast  Level Estimated
05:12PM 28.5455 -81.3329 24° Northeast  Level Estimated
05:13PM 28.5455 -81.3329 24° Northeast  Level Estimated
05:14PM 28.5455 -81.3329 24° Northeast  Level Estimated